KCEY/CEY METAR and TAF weather

Enter ICAO airport designator
Station Type Date Time Source
KCEY METAR 2019/08/19 08:15 UTC NOAA

KCEY 190815Z AUTO 14004KT 10SM 22/22 A2999 RMK AO1


Station Type Date Time Source
KCEY Decoded METAR 2019/08/19 08:15 UTC NOAA

Station name not available
Aug 19, 2019 - 04:15 AM EDT / 2019.08.19 0815 UTC
Wind: from the SE (140 degrees) at 5 MPH (4 KT):0
Visibility: 10 mile(s):0
Temperature: 71 F (22 C)
Dew Point: 71 F (22 C)
Relative Humidity: 100%
Pressure (altimeter): 29.99 in. Hg (1015 hPa)
ob: KCEY 190815Z AUTO 14004KT 10SM 22/22 A2999 RMK AO1
cycle: 8

Station Type Date Time Source
KCEY TAF UTC NOAA

Error!

Example: see airport list